GreenTxt   -   no warnings

Nearby METAR Reports

 

ENZV - Stavanger
Dati ricevuti: 14/08/2018 12:50
Sereno
Sereno
 Vento da O
Vento: O 15 km/h
Temperatura: 19°C
P.to Rugiada: 12°C
Umidità: 64%
Barometro: 1009 hPa
Summary: Sereno
Visibility: greater than 10 km
2018/08/14 10:50 ENZV 141050Z 28008KT CAVOK 19/12 Q1009 NOSIG
ENBR - Bergen
Dati ricevuti: 14/08/2018 12:50
Sereno
Sereno
 Vento da SO
Vento: SO 7 km/h
Temperatura: 19°C
P.to Rugiada: 8°C
Umidità: 49%
Barometro: 1009 hPa
Summary: Sereno
Visibility: greater than 10 km
2018/08/14 10:50 ENBR 141050Z 23004KT 190V270 CAVOK 19/08 Q1009 NOSIG RMK WIND 1200FT 29003KT
 
ENHD - Haugesund
Dati ricevuti: 14/08/2018 12:50
Sereno
Sereno
 Vento da O
Vento: O 13 km/h
Temperatura: 18°C
P.to Rugiada: 11°C
Umidità: 64%
Barometro: 1009 hPa
Clouds: Sereno
Visibility: 10 km
2018/08/14 10:50 ENHD 141050Z AUTO 28007KT 9999 NCD 18/11 Q1009
ENCN - Kristiansand
Dati ricevuti: 14/08/2018 12:50
Nuvoloso
Nuvoloso
 Vento da NE
Vento: NE 11 km/h
Temperatura: 18°C
P.to Rugiada: 12°C
Umidità: 68%
Barometro: 1008 hPa
Clouds: Nuvoloso
Visibility: 10 km
2018/08/14 10:50 ENCN 141050Z 05006KT 360V090 9999 FEW017 BKN039 18/12 Q1008
 
ENBO - Bodø
Dati ricevuti: 14/08/2018 12:50
Parz. nuvoloso
Parz. nuvoloso
 Vento da ONO
Vento: ONO 11 km/h
Temperatura: 12°C
P.to Rugiada: 8°C
Umidità: 77%
Barometro: 1011 hPa
Clouds: Parz. nuvoloso
Visibility: 10 km
2018/08/14 10:50 ENBO 141050Z 30006KT 9999 FEW020 SCT040 12/08 Q1011 NOSIG
ENKR - Kirkenes
Dati ricevuti: 14/08/2018 12:50
Nuvoloso
Nuvoloso
 Vento da NO
Vento: NO 20 km/h
Temperatura: 9°C
Temperatura Vento: 6°C
P.to Rugiada: 5°C
Umidità: 76%
Barometro: 1007 hPa
Clouds: Nuvoloso
Visibility: 10 km
2018/08/14 10:50 ENKR 141050Z 32011KT 9999 FEW020 BKN028 09/05 Q1007 RMK WIND 731FT 31013KT
 
ENVA - Trondheim
Dati ricevuti: 14/08/2018 12:50
Sereno
Sereno
 Vento da OSO
Vento: OSO 19 km/h
Temperatura: 16°C
P.to Rugiada: 9°C
Umidità: 63%
Barometro: 1008 hPa
Summary: Sereno
Visibility: greater than 10 km
2018/08/14 10:50 ENVA 141050Z 25010KT CAVOK 16/09 Q1008 NOSIG RMK WIND 670FT 30004KT
ENGM - Oslo
Dati ricevuti: 14/08/2018 12:50
Sereno
Sereno
 Vento da SSE
Vento: SSE 13 km/h
Temperatura: 18°C
P.to Rugiada: 6°C
Umidità: 46%
Barometro: 1008 hPa
Summary: Sereno
Visibility: greater than 10 km
2018/08/14 10:50 ENGM 141050Z 16007KT 110V200 CAVOK 18/06 Q1008 NOSIG